createdAt,value
2022-08-05T00:01:28.517Z,19.95
2022-08-05T00:03:57.194Z,19.96
2022-08-05T00:06:29.047Z,19.93
2022-08-05T00:09:00.508Z,19.90
2022-08-05T00:11:34.808Z,19.89
2022-08-05T00:14:04.374Z,19.84
2022-08-05T00:16:52.073Z,19.82
2022-08-05T00:19:22.691Z,19.75
2022-08-05T00:21:50.093Z,19.73
2022-08-05T00:24:24.125Z,19.70
2022-08-05T00:26:53.057Z,19.68
2022-08-05T00:29:22.624Z,19.62
2022-08-05T00:32:11.025Z,19.58
2022-08-05T00:34:56.128Z,19.58
2022-08-05T00:37:26.942Z,19.57
2022-08-05T00:40:13.507Z,19.54
2022-08-05T00:42:44.441Z,19.53
2022-08-05T00:45:15.997Z,19.49
2022-08-05T00:47:57.247Z,19.47
2022-08-05T00:50:29.317Z,19.47
2022-08-05T00:52:55.917Z,19.43
2022-08-05T00:55:23.399Z,19.36
2022-08-05T00:58:11.284Z,19.35
2022-08-05T01:00:39.586Z,19.34
2022-08-05T01:03:07.614Z,19.33
2022-08-05T01:05:35.191Z,19.30
2022-08-05T01:08:40.389Z,19.27
2022-08-05T01:10:52.873Z,19.20
2022-08-05T01:13:58.042Z,19.19
2022-08-05T01:16:48.487Z,19.17
2022-08-05T01:19:56.621Z,19.11
2022-08-05T01:22:43.104Z,19.08
2022-08-05T01:25:22.276Z,19.01
2022-08-05T01:28:14.901Z,19.00
2022-08-05T01:30:55.485Z,19.00
2022-08-05T01:33:25.424Z,19.00
2022-08-05T01:35:54.659Z,18.97
2022-08-05T01:38:29.061Z,18.94
2022-08-05T01:41:01.518Z,18.95
2022-08-05T01:43:28.825Z,18.91
2022-08-05T01:45:56.406Z,18.88
2022-08-05T01:48:26.109Z,18.84
2022-08-05T01:50:55.404Z,18.81
2022-08-05T01:53:54.734Z,18.78
2022-08-05T01:56:11.484Z,18.74
2022-08-05T01:58:41.025Z,18.76
2022-08-05T02:01:13.369Z,18.73
2022-08-05T02:03:44.421Z,18.68
2022-08-05T02:06:37.214Z,18.67
2022-08-05T02:08:59.230Z,18.65
2022-08-05T02:11:32.795Z,18.64
2022-08-05T02:14:08.325Z,18.63
2022-08-05T02:16:45.812Z,18.61
2022-08-05T02:19:25.631Z,18.59
2022-08-05T02:22:08.794Z,18.54
2022-08-05T02:24:38.554Z,18.53
2022-08-05T02:27:10.089Z,18.54
2022-08-05T02:29:59.849Z,18.48
2022-08-05T02:32:29.369Z,18.45
2022-08-05T02:35:02.002Z,18.41
2022-08-05T02:37:42.134Z,18.39
2022-08-05T02:40:16.922Z,18.38
2022-08-05T02:42:44.838Z,18.32
2022-08-05T02:45:23.865Z,18.25
2022-08-05T02:48:06.860Z,18.22
2022-08-05T02:50:43.811Z,18.17
2022-08-05T02:53:12.035Z,18.11
2022-08-05T02:55:53.982Z,18.10
2022-08-05T02:58:27.243Z,18.05
2022-08-05T03:01:00.367Z,18.05
2022-08-05T03:03:34.207Z,18.05
2022-08-05T03:06:54.728Z,18.00
2022-08-05T03:09:04.071Z,17.99
2022-08-05T03:11:56.985Z,17.97
2022-08-05T03:14:17.448Z,17.95
2022-08-05T03:16:44.075Z,17.90
2022-08-05T03:19:12.787Z,17.89
2022-08-05T03:21:49.358Z,17.90
2022-08-05T03:24:18.544Z,17.88
2022-08-05T03:26:56.521Z,17.90
2022-08-05T03:29:24.074Z,17.88
2022-08-05T03:31:57.219Z,17.88
2022-08-05T03:34:27.580Z,17.87
2022-08-05T03:36:55.385Z,17.84
2022-08-05T03:39:27.040Z,17.83
2022-08-05T03:41:58.001Z,17.83
2022-08-05T03:44:25.193Z,17.84
2022-08-05T03:46:55.973Z,17.87
2022-08-05T03:49:24.254Z,17.88
2022-08-05T03:52:37.212Z,17.94
2022-08-05T03:55:49.853Z,17.97
2022-08-05T03:57:45.575Z,18.04
2022-08-05T04:00:15.632Z,18.36
2022-08-05T04:02:58.666Z,18.73
2022-08-05T04:05:34.674Z,19.13
2022-08-05T04:08:14.837Z,19.61
2022-08-05T04:10:54.764Z,19.94
2022-08-05T04:13:21.971Z,19.89
2022-08-05T04:16:02.763Z,19.69
2022-08-05T04:18:30.314Z,19.57
2022-08-05T04:20:58.069Z,19.52
2022-08-05T04:24:05.569Z,19.45
2022-08-05T04:26:17.280Z,19.44
2022-08-05T04:28:50.811Z,19.47
2022-08-05T04:31:18.609Z,19.57
2022-08-05T04:33:54.346Z,19.68
2022-08-05T04:36:45.729Z,19.77
2022-08-05T04:39:13.546Z,19.88
2022-08-05T04:41:40.202Z,19.94
2022-08-05T04:44:08.906Z,20.09
2022-08-05T04:46:36.609Z,20.20
2022-08-05T04:49:03.263Z,20.35
2022-08-05T04:51:30.547Z,20.50
2022-08-05T04:53:57.567Z,20.74
2022-08-05T04:56:34.767Z,20.95
2022-08-05T04:59:13.963Z,21.16
2022-08-05T05:02:06.786Z,21.35
2022-08-05T05:04:38.697Z,21.52
2022-08-05T05:07:16.073Z,21.72
2022-08-05T05:09:44.936Z,21.91
2022-08-05T05:12:11.812Z,22.09
2022-08-05T05:14:38.522Z,22.23
2022-08-05T05:17:19.889Z,22.44
2022-08-05T05:19:50.375Z,22.67
2022-08-05T05:22:22.945Z,22.80
2022-08-05T05:24:56.702Z,22.97
2022-08-05T05:27:44.395Z,23.14
2022-08-05T05:30:29.213Z,23.32
2022-08-05T05:33:00.168Z,23.45
2022-08-05T05:35:29.135Z,23.58
2022-08-05T05:38:03.088Z,23.76
2022-08-05T05:40:32.483Z,23.97
2022-08-05T05:43:02.166Z,24.03
2022-08-05T05:45:29.226Z,24.13
2022-08-05T05:48:06.949Z,24.26
2022-08-05T05:50:44.367Z,24.48
2022-08-05T05:53:21.084Z,24.64
2022-08-05T05:55:51.493Z,24.80
2022-08-05T05:58:31.951Z,24.97
2022-08-05T06:01:12.608Z,25.08
2022-08-05T06:04:00.522Z,25.17
2022-08-05T06:06:31.386Z,25.35
2022-08-05T06:09:01.278Z,25.46
2022-08-05T06:11:29.926Z,25.53
2022-08-05T06:13:57.004Z,25.69
2022-08-05T06:16:30.385Z,25.80
2022-08-05T06:19:00.286Z,25.91
2022-08-05T06:21:35.945Z,26.00
2022-08-05T06:24:07.733Z,26.16
2022-08-05T06:26:38.391Z,26.21
2022-08-05T06:29:06.442Z,26.36
2022-08-05T06:31:51.947Z,26.44
2022-08-05T06:34:19.969Z,26.46
2022-08-05T06:36:57.238Z,26.54
2022-08-05T06:39:26.867Z,26.69
2022-08-05T06:41:55.360Z,26.70
2022-08-05T06:44:23.328Z,26.72
2022-08-05T06:46:50.890Z,26.85
2022-08-05T06:49:18.964Z,26.97
2022-08-05T06:51:48.268Z,26.90
2022-08-05T06:54:19.145Z,27.13
2022-08-05T06:56:54.631Z,27.12
2022-08-05T06:59:38.914Z,26.84
2022-08-05T07:02:09.274Z,27.12
2022-08-05T07:04:36.435Z,27.30
2022-08-05T07:07:03.506Z,27.18
2022-08-05T07:09:37.487Z,27.40
2022-08-05T07:12:07.704Z,27.44
2022-08-05T07:14:53.987Z,27.55
2022-08-05T07:18:01.085Z,27.58
2022-08-05T07:20:32.322Z,27.48
2022-08-05T07:22:55.028Z,27.70
2022-08-05T07:25:55.229Z,27.78
2022-08-05T07:28:11.723Z,27.72
2022-08-05T07:30:44.386Z,27.97
2022-08-05T07:33:17.432Z,27.98
2022-08-05T07:36:03.869Z,28.15
2022-08-05T07:38:42.547Z,28.34
2022-08-05T07:42:07.063Z,28.51
2022-08-05T07:43:59.939Z,28.64
2022-08-05T07:46:28.617Z,28.61
2022-08-05T07:49:04.225Z,28.66
2022-08-05T07:51:37.005Z,28.76
2022-08-05T07:54:05.180Z,28.83
2022-08-05T07:57:00.758Z,29.09
2022-08-05T07:59:23.204Z,29.22
2022-08-05T08:01:57.914Z,29.28
2022-08-05T08:04:37.366Z,29.45
2022-08-05T08:07:05.585Z,29.62
2022-08-05T08:09:34.546Z,29.78
2022-08-05T08:12:07.760Z,30.03
2022-08-05T08:14:46.836Z,30.13
2022-08-05T08:17:16.132Z,30.26
2022-08-05T08:20:44.495Z,30.10
2022-08-05T08:22:32.327Z,29.98
2022-08-05T08:25:03.543Z,30.15
2022-08-05T08:27:39.960Z,30.31
2022-08-05T08:30:29.879Z,30.48
2022-08-05T08:33:02.743Z,30.50
2022-08-05T08:35:34.863Z,30.57
2022-08-05T08:38:07.451Z,30.73
2022-08-05T08:40:35.323Z,30.83
2022-08-05T08:45:01.585Z,30.91
2022-08-05T08:45:53.027Z,31.11
2022-08-05T08:48:42.713Z,31.31
2022-08-05T08:51:30.621Z,31.38
2022-08-05T08:53:54.749Z,31.41
2022-08-05T08:56:22.185Z,31.32
2022-08-05T08:58:49.564Z,31.41
2022-08-05T09:01:18.986Z,31.38
2022-08-05T09:03:52.878Z,31.51
2022-08-05T09:06:27.978Z,31.70
2022-08-05T09:09:01.125Z,31.68
2022-08-05T09:11:53.027Z,31.80
2022-08-05T09:14:56.768Z,31.85
2022-08-05T09:17:03.472Z,31.93
2022-08-05T09:19:36.562Z,31.87
2022-08-05T09:22:25.023Z,31.99
2022-08-05T09:25:13.741Z,32.16
2022-08-05T09:28:04.067Z,32.16
2022-08-05T09:30:34.193Z,32.39
2022-08-05T09:33:04.605Z,32.37
2022-08-05T09:35:31.670Z,32.52
2022-08-05T09:38:12.854Z,32.74
2022-08-05T09:40:53.653Z,32.89
2022-08-05T09:43:41.192Z,33.01
2022-08-05T09:46:27.527Z,33.14
2022-08-05T09:49:07.520Z,33.43
2022-08-05T09:51:38.154Z,33.62
2022-08-05T09:54:10.103Z,33.76
2022-08-05T09:56:38.591Z,33.91
2022-08-05T09:59:17.157Z,34.15
2022-08-05T10:01:46.539Z,34.32
2022-08-05T10:04:16.121Z,34.41
2022-08-05T10:06:59.394Z,34.47
2022-08-05T10:09:28.279Z,34.60
2022-08-05T10:12:18.949Z,34.67
2022-08-05T10:15:13.571Z,34.69
2022-08-05T10:17:47.406Z,34.66
2022-08-05T10:20:23.806Z,34.67
2022-08-05T10:22:51.908Z,34.90
2022-08-05T10:25:19.729Z,34.76
2022-08-05T10:28:16.707Z,34.88
2022-08-05T10:31:19.891Z,35.05
2022-08-05T10:33:24.918Z,35.05
2022-08-05T10:36:00.021Z,35.14
2022-08-05T10:38:29.230Z,35.24
2022-08-05T10:41:23.282Z,35.30
2022-08-05T10:44:00.925Z,35.44
2022-08-05T10:46:51.009Z,35.44
2022-08-05T10:49:26.622Z,35.50
2022-08-05T10:52:00.681Z,35.56
2022-08-05T10:54:56.102Z,35.67
2022-08-05T10:57:32.245Z,35.74
2022-08-05T11:00:20.114Z,35.99
2022-08-05T11:03:24.676Z,36.07
2022-08-05T11:06:05.740Z,36.31
2022-08-05T11:08:38.147Z,36.01
2022-08-05T11:11:52.229Z,36.00
2022-08-05T11:14:49.326Z,36.00
2022-08-05T11:17:58.883Z,35.76
2022-08-05T11:20:34.215Z,35.91
2022-08-05T11:23:06.092Z,36.05
2022-08-05T11:26:04.108Z,36.17
2022-08-05T11:28:25.305Z,36.08
2022-08-05T11:31:01.537Z,36.01
2022-08-05T11:33:46.653Z,36.06
2022-08-05T11:36:34.518Z,35.92
2022-08-05T11:39:05.476Z,35.79
2022-08-05T11:41:54.576Z,35.62
2022-08-05T11:44:40.123Z,35.98
2022-08-05T11:47:11.824Z,36.35
2022-08-05T11:49:43.312Z,36.54
2022-08-05T11:52:24.577Z,36.31
2022-08-05T11:54:57.433Z,36.55
2022-08-05T11:58:08.660Z,36.47
2022-08-05T12:00:31.295Z,36.71
2022-08-05T12:02:58.072Z,36.85
2022-08-05T12:05:32.268Z,36.84
2022-08-05T12:08:10.979Z,36.93
2022-08-05T12:10:45.425Z,36.87
2022-08-05T12:13:16.402Z,36.87
2022-08-05T12:15:45.436Z,36.97
2022-08-05T12:18:29.619Z,37.00
2022-08-05T12:21:13.858Z,37.20
2022-08-05T12:24:04.336Z,37.36
2022-08-05T12:26:35.386Z,37.35
2022-08-05T12:29:05.152Z,37.17
2022-08-05T12:31:43.797Z,37.56
2022-08-05T12:34:21.353Z,37.97
2022-08-05T12:36:52.324Z,38.09
2022-08-05T12:39:19.385Z,37.96
2022-08-05T12:41:46.218Z,37.87
2022-08-05T12:44:33.090Z,37.92
2022-08-05T12:47:02.386Z,37.94
2022-08-05T12:50:04.815Z,37.93
2022-08-05T12:52:39.407Z,38.22
2022-08-05T12:55:35.429Z,38.57
2022-08-05T12:58:52.742Z,38.80
2022-08-05T13:02:00.556Z,39.07
2022-08-05T13:03:41.997Z,39.28
2022-08-05T13:06:17.132Z,39.47
2022-08-05T13:08:51.953Z,39.65
2022-08-05T13:11:59.655Z,39.80
2022-08-05T13:14:19.234Z,39.78
2022-08-05T13:16:57.437Z,39.60
2022-08-05T13:19:27.338Z,38.90
2022-08-05T13:22:14.059Z,39.01
2022-08-05T13:24:58.068Z,38.77
2022-08-05T13:27:38.315Z,38.69
2022-08-05T13:30:36.065Z,39.03
2022-08-05T13:32:54.811Z,39.32
2022-08-05T13:35:43.067Z,39.56
2022-08-05T13:38:15.758Z,39.88
2022-08-05T13:40:55.292Z,40.12
2022-08-05T13:43:22.443Z,40.09
2022-08-05T13:45:49.202Z,39.61
2022-08-05T13:48:58.906Z,39.57
2022-08-05T13:51:08.638Z,41.03
2022-08-05T13:53:47.418Z,42.05
2022-08-05T13:56:18.873Z,43.14
2022-08-05T13:58:53.144Z,44.11
2022-08-05T14:01:24.695Z,45.10
2022-08-05T14:04:22.427Z,46.39
2022-08-05T14:06:58.867Z,47.66
2022-08-05T14:09:42.997Z,47.63
2022-08-05T14:12:18.317Z,46.41
2022-08-05T14:14:59.936Z,46.50
2022-08-05T14:17:28.325Z,46.13
2022-08-05T14:19:59.662Z,44.13
2022-08-05T14:22:30.545Z,42.57
2022-08-05T14:25:02.139Z,41.51
2022-08-05T14:27:32.921Z,40.97
2022-08-05T14:29:59.568Z,40.75
2022-08-05T14:32:28.125Z,39.92
2022-08-05T14:34:56.933Z,39.16
2022-08-05T14:37:44.843Z,39.05
2022-08-05T14:40:14.168Z,39.27
2022-08-05T14:42:44.263Z,39.39
2022-08-05T14:45:11.534Z,39.27
2022-08-05T14:48:05.161Z,39.22
2022-08-05T14:50:25.423Z,38.75
2022-08-05T14:52:58.322Z,38.53
2022-08-05T14:55:38.474Z,38.36
2022-08-05T14:58:10.966Z,38.21
2022-08-05T15:00:38.357Z,38.08
2022-08-05T15:03:09.599Z,37.98
2022-08-05T15:06:12.947Z,37.97
2022-08-05T15:08:58.556Z,38.13
2022-08-05T15:11:10.430Z,38.11
2022-08-05T15:13:46.050Z,38.01
2022-08-05T15:16:16.973Z,38.11
2022-08-05T15:18:43.809Z,38.28
2022-08-05T15:21:14.051Z,38.13
2022-08-05T15:23:40.682Z,37.92
2022-08-05T15:26:07.385Z,38.17
2022-08-05T15:28:34.042Z,38.12
2022-08-05T15:31:00.660Z,38.06
2022-08-05T15:34:06.209Z,37.71
2022-08-05T15:36:24.714Z,37.37
2022-08-05T15:41:01.187Z,37.22
2022-08-05T15:41:55.531Z,37.21
2022-08-05T15:44:23.701Z,37.23
2022-08-05T15:46:50.670Z,37.14
2022-08-05T15:49:27.324Z,36.99
2022-08-05T15:52:13.156Z,37.00
2022-08-05T15:54:43.104Z,36.97
2022-08-05T15:57:09.867Z,37.02
2022-08-05T15:59:38.095Z,36.97
2022-08-05T16:02:09.756Z,36.96
2022-08-05T16:04:42.378Z,36.81
2022-08-05T16:07:10.724Z,36.77
2022-08-05T16:09:37.830Z,36.72
2022-08-05T16:12:09.067Z,36.63
2022-08-05T16:14:36.064Z,36.66
2022-08-05T16:17:03.959Z,36.49
2022-08-05T16:20:04.337Z,36.38
2022-08-05T16:22:17.492Z,36.51
2022-08-05T16:24:51.620Z,36.33
2022-08-05T16:27:19.138Z,36.17
2022-08-05T16:29:58.998Z,36.07
2022-08-05T16:32:29.449Z,36.03
2022-08-05T16:34:56.930Z,36.06
2022-08-05T16:38:11.943Z,36.04
2022-08-05T16:40:20.258Z,35.96
2022-08-05T16:42:52.086Z,35.90
2022-08-05T16:46:07.855Z,35.84
2022-08-05T16:48:05.418Z,35.74
2022-08-05T16:50:32.075Z,35.56
2022-08-05T16:53:01.613Z,35.44
2022-08-05T16:55:46.927Z,35.32
2022-08-05T16:58:14.411Z,35.07
2022-08-05T17:00:41.116Z,34.86
2022-08-05T17:03:15.286Z,34.70
2022-08-05T17:05:53.211Z,34.47
2022-08-05T17:08:33.813Z,34.29
2022-08-05T17:11:12.745Z,34.05
2022-08-05T17:13:43.398Z,33.91
2022-08-05T17:16:29.622Z,33.79
2022-08-05T17:18:57.118Z,33.59
2022-08-05T17:21:23.962Z,33.42
2022-08-05T17:24:05.653Z,33.27
2022-08-05T17:26:38.416Z,33.08
2022-08-05T17:29:10.089Z,32.94
2022-08-05T17:31:56.548Z,32.76
2022-08-05T17:34:30.262Z,32.57
2022-08-05T17:37:00.319Z,32.45
2022-08-05T17:39:33.487Z,32.27
2022-08-05T17:42:20.257Z,32.12
2022-08-05T17:44:50.500Z,31.85
2022-08-05T17:47:21.773Z,31.75
2022-08-05T17:50:00.334Z,31.57
2022-08-05T17:52:34.649Z,31.34
2022-08-05T17:55:20.975Z,31.21
2022-08-05T17:57:48.520Z,31.05
2022-08-05T18:00:17.248Z,30.87
2022-08-05T18:02:46.740Z,30.74
2022-08-05T18:05:13.774Z,30.56
2022-08-05T18:07:44.491Z,30.38
2022-08-05T18:10:20.331Z,30.25
2022-08-05T18:12:49.350Z,30.09
2022-08-05T18:15:16.221Z,29.95
2022-08-05T18:17:59.541Z,29.81
2022-08-05T18:20:31.994Z,29.67
2022-08-05T18:23:00.649Z,29.54
2022-08-05T18:25:39.219Z,29.44
2022-08-05T18:28:07.004Z,29.35
2022-08-05T18:30:34.402Z,29.20
2022-08-05T18:33:01.638Z,29.04
2022-08-05T18:36:00.753Z,28.93
2022-08-05T18:38:19.215Z,28.72
2022-08-05T18:41:53.268Z,28.60
2022-08-05T18:43:43.024Z,28.47
2022-08-05T18:46:15.342Z,28.37
2022-08-05T18:48:42.123Z,28.32
2022-08-05T18:52:03.053Z,28.24
2022-08-05T18:54:14.646Z,28.15
2022-08-05T18:56:41.828Z,28.06
2022-08-05T18:59:43.440Z,27.98
2022-08-05T19:02:11.061Z,27.89
2022-08-05T19:05:00.996Z,27.84
2022-08-05T19:07:30.226Z,27.75
2022-08-05T19:10:13.747Z,27.64
2022-08-05T19:12:40.450Z,27.55
2022-08-05T19:15:25.049Z,27.37
2022-08-05T19:18:08.718Z,27.25
2022-08-05T19:20:36.716Z,27.19
2022-08-05T19:23:03.377Z,27.10
2022-08-05T19:25:41.992Z,27.02
2022-08-05T19:28:10.475Z,26.89
2022-08-05T19:30:37.042Z,26.82
2022-08-05T19:33:05.057Z,26.74
2022-08-05T19:35:56.319Z,26.69
2022-08-05T19:38:26.503Z,26.54
2022-08-05T19:40:53.597Z,26.45
2022-08-05T19:44:04.239Z,26.43
2022-08-05T19:46:16.867Z,26.33
2022-08-05T19:48:53.710Z,26.25
2022-08-05T19:52:06.011Z,26.21
2022-08-05T19:54:25.500Z,26.12
2022-08-05T19:56:56.214Z,26.05
2022-08-05T19:59:55.306Z,26.01
2022-08-05T20:02:09.496Z,25.97
2022-08-05T20:04:38.038Z,25.92
2022-08-05T20:07:13.274Z,25.83
2022-08-05T20:09:54.673Z,25.82
2022-08-05T20:12:23.600Z,25.71
2022-08-05T20:14:52.330Z,25.68
2022-08-05T20:17:23.738Z,25.61
2022-08-05T20:19:56.971Z,25.57
2022-08-05T20:22:27.302Z,25.54
2022-08-05T20:24:55.580Z,25.52
2022-08-05T20:27:26.961Z,25.48
2022-08-05T20:29:58.427Z,25.29
2022-08-05T20:32:27.074Z,25.26
2022-08-05T20:34:54.232Z,25.22
2022-08-05T20:38:04.540Z,25.22
2022-08-05T20:40:08.459Z,25.19
2022-08-05T20:42:35.527Z,25.19
2022-08-05T20:45:02.732Z,25.15
2022-08-05T20:47:32.073Z,25.11
2022-08-05T20:49:59.700Z,25.08
2022-08-05T20:52:28.873Z,25.05
2022-08-05T20:55:15.834Z,24.95
2022-08-05T20:57:44.285Z,24.95
2022-08-05T21:00:40.962Z,24.90
2022-08-05T21:03:06.028Z,24.88
2022-08-05T21:05:47.756Z,24.87
2022-08-05T21:08:21.296Z,24.79
2022-08-05T21:11:00.203Z,24.71
2022-08-05T21:13:55.574Z,24.71
2022-08-05T21:16:13.971Z,24.65
2022-08-05T21:18:43.016Z,24.60
2022-08-05T21:21:12.254Z,24.59
2022-08-05T21:23:39.112Z,24.58
2022-08-05T21:26:08.230Z,24.57
2022-08-05T21:28:40.494Z,24.57
2022-08-05T21:31:17.475Z,24.52
2022-08-05T21:33:47.845Z,24.51
2022-08-05T21:36:27.789Z,24.50
2022-08-05T21:38:57.004Z,24.43
2022-08-05T21:41:25.992Z,24.41
2022-08-05T21:44:03.606Z,24.40
2022-08-05T21:46:34.468Z,24.37
2022-08-05T21:49:07.156Z,24.36
2022-08-05T21:52:21.359Z,24.33
2022-08-05T21:54:30.813Z,24.35
2022-08-05T21:57:28.351Z,24.35
2022-08-05T22:00:02.130Z,24.32
2022-08-05T22:02:39.277Z,24.34
2022-08-05T22:05:08.893Z,24.32
2022-08-05T22:07:39.463Z,24.31
2022-08-05T22:10:26.680Z,24.32
2022-08-05T22:12:59.190Z,24.33
2022-08-05T22:16:02.491Z,24.38
2022-08-05T22:18:25.600Z,24.38
2022-08-05T22:20:52.785Z,24.35
2022-08-05T22:24:02.452Z,24.34
2022-08-05T22:26:49.781Z,24.30
2022-08-05T22:29:17.464Z,24.31
2022-08-05T22:31:45.762Z,24.34
2022-08-05T22:34:28.637Z,24.35
2022-08-05T22:36:56.741Z,24.36
2022-08-05T22:39:29.798Z,24.32
2022-08-05T22:42:09.401Z,24.32
2022-08-05T22:44:40.117Z,24.28
2022-08-05T22:47:06.963Z,24.23
2022-08-05T22:50:20.285Z,24.19
2022-08-05T22:52:30.671Z,24.10
2022-08-05T22:55:01.766Z,24.02
2022-08-05T22:57:36.296Z,23.99
2022-08-05T23:00:06.130Z,23.91
2022-08-05T23:02:35.593Z,23.82
2022-08-05T23:05:13.482Z,23.77
2022-08-05T23:07:45.273Z,23.70
2022-08-05T23:10:16.388Z,23.73
2022-08-05T23:12:47.737Z,23.73
2022-08-05T23:15:18.716Z,23.70
2022-08-05T23:18:02.396Z,23.69
2022-08-05T23:20:37.472Z,23.68
2022-08-05T23:23:08.440Z,23.65
2022-08-05T23:25:52.053Z,23.65
2022-08-05T23:28:22.064Z,23.65
2022-08-05T23:30:53.184Z,23.67
2022-08-05T23:33:26.223Z,23.69
2022-08-05T23:36:10.062Z,23.74
2022-08-05T23:38:37.159Z,23.71
2022-08-05T23:41:03.828Z,23.67
2022-08-05T23:44:05.317Z,23.69
2022-08-05T23:46:20.649Z,23.73
2022-08-05T23:49:00.699Z,23.73
2022-08-05T23:51:55.002Z,23.79
2022-08-05T23:54:30.387Z,23.75
2022-08-05T23:57:05.187Z,23.73
